sensor_id;sensor_type;location;lat;lon;timestamp;P1;durP1;ratioP1;P2;durP2;ratioP2
54705;SDS011;40603;48.774;8.916;2023-05-15T00:00:13;6.80;;;4.00;;
54705;SDS011;40603;48.774;8.916;2023-05-15T00:02:39;6.75;;;4.15;;
54705;SDS011;40603;48.774;8.916;2023-05-15T00:05:04;5.78;;;4.22;;
54705;SDS011;40603;48.774;8.916;2023-05-15T00:07:30;4.60;;;3.90;;
54705;SDS011;40603;48.774;8.916;2023-05-15T00:09:56;5.95;;;3.72;;
54705;SDS011;40603;48.774;8.916;2023-05-15T00:12:21;6.25;;;4.72;;
54705;SDS011;40603;48.774;8.916;2023-05-15T00:14:46;10.32;;;4.80;;
54705;SDS011;40603;48.774;8.916;2023-05-15T00:17:12;5.15;;;4.35;;
54705;SDS011;40603;48.774;8.916;2023-05-15T00:19:37;5.65;;;4.70;;
54705;SDS011;40603;48.774;8.916;2023-05-15T00:22:02;7.18;;;4.95;;
54705;SDS011;40603;48.774;8.916;2023-05-15T00:24:28;7.10;;;4.93;;
54705;SDS011;40603;48.774;8.916;2023-05-15T00:26:53;7.60;;;5.00;;
54705;SDS011;40603;48.774;8.916;2023-05-15T00:29:19;5.85;;;4.65;;
54705;SDS011;40603;48.774;8.916;2023-05-15T00:31:44;7.13;;;4.82;;
54705;SDS011;40603;48.774;8.916;2023-05-15T00:34:09;7.75;;;4.68;;
54705;SDS011;40603;48.774;8.916;2023-05-15T00:36:34;4.90;;;4.40;;
54705;SDS011;40603;48.774;8.916;2023-05-15T00:39:00;5.32;;;4.82;;
54705;SDS011;40603;48.774;8.916;2023-05-15T00:41:25;9.82;;;4.97;;
54705;SDS011;40603;48.774;8.916;2023-05-15T00:43:52;5.40;;;4.07;;
54705;SDS011;40603;48.774;8.916;2023-05-15T00:46:19;6.85;;;4.20;;
54705;SDS011;40603;48.774;8.916;2023-05-15T00:48:45;5.40;;;4.57;;
54705;SDS011;40603;48.774;8.916;2023-05-15T00:51:12;8.55;;;4.20;;
54705;SDS011;40603;48.774;8.916;2023-05-15T00:53:37;7.07;;;4.32;;
54705;SDS011;40603;48.774;8.916;2023-05-15T00:56:03;5.40;;;4.50;;
54705;SDS011;40603;48.774;8.916;2023-05-15T00:58:29;6.65;;;4.40;;
54705;SDS011;40603;48.774;8.916;2023-05-15T01:00:55;7.00;;;4.43;;
54705;SDS011;40603;48.774;8.916;2023-05-15T01:03:20;5.78;;;4.32;;
54705;SDS011;40603;48.774;8.916;2023-05-15T01:05:46;10.55;;;4.68;;
54705;SDS011;40603;48.774;8.916;2023-05-15T01:10:48;6.90;;;4.70;;
54705;SDS011;40603;48.774;8.916;2023-05-15T01:13:15;5.53;;;4.53;;
54705;SDS011;40603;48.774;8.916;2023-05-15T01:15:44;5.72;;;4.43;;
54705;SDS011;40603;48.774;8.916;2023-05-15T01:18:09;5.80;;;4.82;;
54705;SDS011;40603;48.774;8.916;2023-05-15T01:20:41;8.20;;;4.30;;
54705;SDS011;40603;48.774;8.916;2023-05-15T01:32:10;8.48;;;3.92;;
54705;SDS011;40603;48.774;8.916;2023-05-15T01:37:18;4.82;;;4.32;;
54705;SDS011;40603;48.774;8.916;2023-05-15T01:39:46;5.50;;;3.78;;
54705;SDS011;40603;48.774;8.916;2023-05-15T01:42:14;6.13;;;4.70;;
54705;SDS011;40603;48.774;8.916;2023-05-15T01:44:42;6.00;;;4.07;;
54705;SDS011;40603;48.774;8.916;2023-05-15T01:47:13;5.73;;;4.37;;
54705;SDS011;40603;48.774;8.916;2023-05-15T01:49:42;6.57;;;4.70;;
54705;SDS011;40603;48.774;8.916;2023-05-15T01:52:11;5.82;;;4.38;;
54705;SDS011;40603;48.774;8.916;2023-05-15T01:54:39;8.20;;;4.60;;
54705;SDS011;40603;48.774;8.916;2023-05-15T01:57:06;5.47;;;4.60;;
54705;SDS011;40603;48.774;8.916;2023-05-15T01:59:33;7.13;;;4.32;;
54705;SDS011;40603;48.774;8.916;2023-05-15T02:01:59;5.30;;;4.05;;
54705;SDS011;40603;48.774;8.916;2023-05-15T02:04:26;6.10;;;4.22;;
54705;SDS011;40603;48.774;8.916;2023-05-15T02:06:52;5.38;;;4.25;;
54705;SDS011;40603;48.774;8.916;2023-05-15T02:09:18;5.53;;;3.92;;
54705;SDS011;40603;48.774;8.916;2023-05-15T02:11:44;5.35;;;4.25;;
54705;SDS011;40603;48.774;8.916;2023-05-15T02:14:10;6.70;;;4.28;;
54705;SDS011;40603;48.774;8.916;2023-05-15T02:16:36;5.53;;;4.40;;
54705;SDS011;40603;48.774;8.916;2023-05-15T02:19:02;4.88;;;4.10;;
54705;SDS011;40603;48.774;8.916;2023-05-15T02:21:27;6.00;;;4.50;;
54705;SDS011;40603;48.774;8.916;2023-05-15T02:23:52;6.28;;;4.30;;
54705;SDS011;40603;48.774;8.916;2023-05-15T02:26:41;5.38;;;4.07;;
54705;SDS011;40603;48.774;8.916;2023-05-15T02:29:17;5.32;;;4.40;;
54705;SDS011;40603;48.774;8.916;2023-05-15T02:32:05;6.88;;;3.97;;
54705;SDS011;40603;48.774;8.916;2023-05-15T02:37:26;4.80;;;4.30;;
54705;SDS011;40603;48.774;8.916;2023-05-15T02:39:53;10.55;;;6.20;;
54705;SDS011;40603;48.774;8.916;2023-05-15T02:42:19;5.78;;;4.57;;
54705;SDS011;40603;48.774;8.916;2023-05-15T02:44:45;5.40;;;4.28;;
54705;SDS011;40603;48.774;8.916;2023-05-15T02:47:11;8.95;;;4.10;;
54705;SDS011;40603;48.774;8.916;2023-05-15T02:49:37;7.28;;;4.22;;
54705;SDS011;40603;48.774;8.916;2023-05-15T02:52:03;4.82;;;4.20;;
54705;SDS011;40603;48.774;8.916;2023-05-15T02:54:28;5.07;;;4.30;;
54705;SDS011;40603;48.774;8.916;2023-05-15T02:56:54;5.13;;;4.30;;
54705;SDS011;40603;48.774;8.916;2023-05-15T02:59:19;5.18;;;4.57;;
54705;SDS011;40603;48.774;8.916;2023-05-15T03:01:45;8.13;;;4.93;;
54705;SDS011;40603;48.774;8.916;2023-05-15T03:04:12;7.40;;;4.82;;
54705;SDS011;40603;48.774;8.916;2023-05-15T03:06:38;7.95;;;4.53;;
54705;SDS011;40603;48.774;8.916;2023-05-15T03:09:03;5.90;;;4.53;;
54705;SDS011;40603;48.774;8.916;2023-05-15T03:11:28;5.63;;;4.78;;
54705;SDS011;40603;48.774;8.916;2023-05-15T03:13:54;7.03;;;4.90;;
54705;SDS011;40603;48.774;8.916;2023-05-15T03:16:19;11.40;;;5.53;;
54705;SDS011;40603;48.774;8.916;2023-05-15T03:18:44;7.65;;;4.88;;
54705;SDS011;40603;48.774;8.916;2023-05-15T03:21:10;9.52;;;4.90;;
54705;SDS011;40603;48.774;8.916;2023-05-15T03:23:35;6.30;;;4.53;;
54705;SDS011;40603;48.774;8.916;2023-05-15T03:26:02;7.20;;;5.00;;
54705;SDS011;40603;48.774;8.916;2023-05-15T03:28:27;5.32;;;4.53;;
54705;SDS011;40603;48.774;8.916;2023-05-15T03:30:53;5.78;;;4.80;;
54705;SDS011;40603;48.774;8.916;2023-05-15T03:33:18;6.68;;;4.65;;
54705;SDS011;40603;48.774;8.916;2023-05-15T03:35:43;6.15;;;4.78;;
54705;SDS011;40603;48.774;8.916;2023-05-15T03:38:09;6.70;;;4.50;;
54705;SDS011;40603;48.774;8.916;2023-05-15T03:40:36;5.88;;;4.50;;
54705;SDS011;40603;48.774;8.916;2023-05-15T03:43:02;10.70;;;4.45;;
54705;SDS011;40603;48.774;8.916;2023-05-15T03:45:27;6.78;;;4.78;;
54705;SDS011;40603;48.774;8.916;2023-05-15T03:47:53;6.38;;;4.80;;
54705;SDS011;40603;48.774;8.916;2023-05-15T03:50:18;7.07;;;5.18;;
54705;SDS011;40603;48.774;8.916;2023-05-15T03:52:44;6.13;;;4.82;;
54705;SDS011;40603;48.774;8.916;2023-05-15T03:55:09;9.68;;;5.00;;
54705;SDS011;40603;48.774;8.916;2023-05-15T03:57:34;7.53;;;5.15;;
54705;SDS011;40603;48.774;8.916;2023-05-15T04:00:00;7.30;;;4.93;;
54705;SDS011;40603;48.774;8.916;2023-05-15T04:02:27;5.07;;;4.10;;
54705;SDS011;40603;48.774;8.916;2023-05-15T04:04:53;12.55;;;5.03;;
54705;SDS011;40603;48.774;8.916;2023-05-15T04:07:18;6.35;;;4.40;;
54705;SDS011;40603;48.774;8.916;2023-05-15T04:09:43;6.68;;;4.78;;
54705;SDS011;40603;48.774;8.916;2023-05-15T04:12:09;6.30;;;4.80;;
54705;SDS011;40603;48.774;8.916;2023-05-15T04:14:34;6.35;;;4.78;;
54705;SDS011;40603;48.774;8.916;2023-05-15T04:16:59;5.68;;;4.60;;
54705;SDS011;40603;48.774;8.916;2023-05-15T04:19:25;7.15;;;4.60;;
54705;SDS011;40603;48.774;8.916;2023-05-15T04:21:50;10.48;;;4.82;;
54705;SDS011;40603;48.774;8.916;2023-05-15T04:24:15;7.97;;;4.78;;
54705;SDS011;40603;48.774;8.916;2023-05-15T04:26:40;6.60;;;5.05;;
54705;SDS011;40603;48.774;8.916;2023-05-15T04:29:06;6.32;;;4.43;;
54705;SDS011;40603;48.774;8.916;2023-05-15T04:31:31;5.60;;;4.65;;
54705;SDS011;40603;48.774;8.916;2023-05-15T04:33:58;6.82;;;4.43;;
54705;SDS011;40603;48.774;8.916;2023-05-15T04:36:24;8.23;;;4.80;;
54705;SDS011;40603;48.774;8.916;2023-05-15T04:38:49;6.28;;;4.53;;
54705;SDS011;40603;48.774;8.916;2023-05-15T04:41:14;7.45;;;5.28;;
54705;SDS011;40603;48.774;8.916;2023-05-15T04:43:40;7.25;;;5.10;;
54705;SDS011;40603;48.774;8.916;2023-05-15T04:46:05;7.57;;;5.40;;
54705;SDS011;40603;48.774;8.916;2023-05-15T04:48:30;8.02;;;5.50;;
54705;SDS011;40603;48.774;8.916;2023-05-15T04:50:55;7.90;;;5.07;;
54705;SDS011;40603;48.774;8.916;2023-05-15T04:53:21;4.88;;;4.35;;
54705;SDS011;40603;48.774;8.916;2023-05-15T04:55:46;6.43;;;4.95;;
54705;SDS011;40603;48.774;8.916;2023-05-15T04:58:15;6.85;;;4.82;;
54705;SDS011;40603;48.774;8.916;2023-05-15T05:00:40;7.07;;;5.25;;
54705;SDS011;40603;48.774;8.916;2023-05-15T05:03:05;8.25;;;4.82;;
54705;SDS011;40603;48.774;8.916;2023-05-15T05:05:31;6.63;;;4.85;;
54705;SDS011;40603;48.774;8.916;2023-05-15T05:07:56;6.85;;;5.07;;
54705;SDS011;40603;48.774;8.916;2023-05-15T05:10:21;8.27;;;4.57;;
54705;SDS011;40603;48.774;8.916;2023-05-15T05:12:46;6.05;;;4.90;;
54705;SDS011;40603;48.774;8.916;2023-05-15T05:15:12;5.30;;;4.80;;
54705;SDS011;40603;48.774;8.916;2023-05-15T05:17:37;5.85;;;4.75;;
54705;SDS011;40603;48.774;8.916;2023-05-15T05:20:03;7.85;;;5.10;;
54705;SDS011;40603;48.774;8.916;2023-05-15T05:22:29;6.78;;;5.18;;
54705;SDS011;40603;48.774;8.916;2023-05-15T05:24:54;6.50;;;5.10;;
54705;SDS011;40603;48.774;8.916;2023-05-15T05:27:20;7.20;;;5.18;;
54705;SDS011;40603;48.774;8.916;2023-05-15T05:29:45;5.93;;;4.68;;
54705;SDS011;40603;48.774;8.916;2023-05-15T05:32:11;8.43;;;5.05;;
54705;SDS011;40603;48.774;8.916;2023-05-15T05:34:37;8.02;;;5.18;;
54705;SDS011;40603;48.774;8.916;2023-05-15T05:37:02;7.57;;;5.75;;
54705;SDS011;40603;48.774;8.916;2023-05-15T05:39:27;8.70;;;5.50;;
54705;SDS011;40603;48.774;8.916;2023-05-15T05:41:52;6.78;;;5.65;;
54705;SDS011;40603;48.774;8.916;2023-05-15T05:44:18;6.43;;;5.05;;
54705;SDS011;40603;48.774;8.916;2023-05-15T05:46:43;7.30;;;5.63;;
54705;SDS011;40603;48.774;8.916;2023-05-15T05:49:09;9.57;;;5.30;;
54705;SDS011;40603;48.774;8.916;2023-05-15T05:51:34;9.85;;;5.65;;
54705;SDS011;40603;48.774;8.916;2023-05-15T05:54:03;8.60;;;5.70;;
54705;SDS011;40603;48.774;8.916;2023-05-15T05:56:28;6.13;;;5.07;;
54705;SDS011;40603;48.774;8.916;2023-05-15T05:58:53;6.40;;;5.18;;
54705;SDS011;40603;48.774;8.916;2023-05-15T06:01:20;7.40;;;5.03;;
54705;SDS011;40603;48.774;8.916;2023-05-15T06:03:45;6.93;;;5.00;;
54705;SDS011;40603;48.774;8.916;2023-05-15T06:06:11;7.30;;;4.88;;
54705;SDS011;40603;48.774;8.916;2023-05-15T06:08:36;10.15;;;4.55;;
54705;SDS011;40603;48.774;8.916;2023-05-15T06:11:02;6.43;;;4.90;;
54705;SDS011;40603;48.774;8.916;2023-05-15T06:13:27;8.63;;;4.80;;
54705;SDS011;40603;48.774;8.916;2023-05-15T06:15:53;10.23;;;4.40;;
54705;SDS011;40603;48.774;8.916;2023-05-15T06:18:18;5.20;;;4.47;;
54705;SDS011;40603;48.774;8.916;2023-05-15T06:20:43;6.68;;;4.72;;
54705;SDS011;40603;48.774;8.916;2023-05-15T06:23:09;4.85;;;4.32;;
54705;SDS011;40603;48.774;8.916;2023-05-15T06:25:34;7.30;;;4.32;;
54705;SDS011;40603;48.774;8.916;2023-05-15T06:28:00;5.55;;;4.60;;
54705;SDS011;40603;48.774;8.916;2023-05-15T06:30:25;5.03;;;4.22;;
54705;SDS011;40603;48.774;8.916;2023-05-15T06:32:50;6.63;;;4.15;;
54705;SDS011;40603;48.774;8.916;2023-05-15T06:35:16;8.18;;;3.75;;
54705;SDS011;40603;48.774;8.916;2023-05-15T06:37:42;6.40;;;4.30;;
54705;SDS011;40603;48.774;8.916;2023-05-15T06:40:07;5.35;;;4.13;;
54705;SDS011;40603;48.774;8.916;2023-05-15T06:42:33;7.28;;;4.25;;
54705;SDS011;40603;48.774;8.916;2023-05-15T06:44:59;5.82;;;4.10;;
54705;SDS011;40603;48.774;8.916;2023-05-15T06:47:24;6.20;;;4.15;;
54705;SDS011;40603;48.774;8.916;2023-05-15T06:49:49;4.68;;;4.10;;
54705;SDS011;40603;48.774;8.916;2023-05-15T06:52:15;7.10;;;4.05;;
54705;SDS011;40603;48.774;8.916;2023-05-15T06:54:40;5.93;;;4.15;;
54705;SDS011;40603;48.774;8.916;2023-05-15T06:57:06;4.70;;;3.63;;
54705;SDS011;40603;48.774;8.916;2023-05-15T06:59:31;5.15;;;3.50;;
54705;SDS011;40603;48.774;8.916;2023-05-15T07:01:59;5.25;;;3.53;;
54705;SDS011;40603;48.774;8.916;2023-05-15T07:04:25;3.75;;;3.33;;
54705;SDS011;40603;48.774;8.916;2023-05-15T07:06:51;3.53;;;3.20;;
54705;SDS011;40603;48.774;8.916;2023-05-15T07:09:16;4.35;;;3.40;;
54705;SDS011;40603;48.774;8.916;2023-05-15T07:11:41;4.53;;;3.70;;
54705;SDS011;40603;48.774;8.916;2023-05-15T07:14:07;5.28;;;3.42;;
54705;SDS011;40603;48.774;8.916;2023-05-15T07:16:32;3.22;;;2.92;;
54705;SDS011;40603;48.774;8.916;2023-05-15T07:18:59;3.50;;;2.97;;
54705;SDS011;40603;48.774;8.916;2023-05-15T07:21:24;4.97;;;3.40;;
54705;SDS011;40603;48.774;8.916;2023-05-15T07:23:49;3.92;;;3.00;;
54705;SDS011;40603;48.774;8.916;2023-05-15T07:26:15;3.30;;;2.80;;
54705;SDS011;40603;48.774;8.916;2023-05-15T07:28:40;3.42;;;2.90;;
54705;SDS011;40603;48.774;8.916;2023-05-15T07:31:06;4.25;;;2.97;;
54705;SDS011;40603;48.774;8.916;2023-05-15T07:33:31;2.85;;;2.55;;
54705;SDS011;40603;48.774;8.916;2023-05-15T07:35:57;4.20;;;2.70;;
54705;SDS011;40603;48.774;8.916;2023-05-15T07:38:22;3.85;;;2.72;;
54705;SDS011;40603;48.774;8.916;2023-05-15T07:40:48;3.75;;;2.70;;
54705;SDS011;40603;48.774;8.916;2023-05-15T07:43:13;3.10;;;2.65;;
54705;SDS011;40603;48.774;8.916;2023-05-15T07:45:38;7.13;;;2.75;;
54705;SDS011;40603;48.774;8.916;2023-05-15T07:48:16;2.85;;;2.40;;
54705;SDS011;40603;48.774;8.916;2023-05-15T07:50:43;3.33;;;2.58;;
54705;SDS011;40603;48.774;8.916;2023-05-15T07:53:09;3.90;;;2.60;;
54705;SDS011;40603;48.774;8.916;2023-05-15T07:55:35;2.88;;;2.50;;
54705;SDS011;40603;48.774;8.916;2023-05-15T07:58:00;3.47;;;2.40;;
54705;SDS011;40603;48.774;8.916;2023-05-15T08:00:25;4.63;;;2.80;;
54705;SDS011;40603;48.774;8.916;2023-05-15T08:02:51;5.60;;;2.92;;
54705;SDS011;40603;48.774;8.916;2023-05-15T08:05:16;4.28;;;2.30;;
54705;SDS011;40603;48.774;8.916;2023-05-15T08:07:41;3.70;;;2.53;;
54705;SDS011;40603;48.774;8.916;2023-05-15T08:10:07;4.22;;;2.92;;
54705;SDS011;40603;48.774;8.916;2023-05-15T08:12:33;8.68;;;2.50;;
54705;SDS011;40603;48.774;8.916;2023-05-15T08:14:58;7.65;;;3.05;;
54705;SDS011;40603;48.774;8.916;2023-05-15T08:17:24;3.35;;;2.60;;
54705;SDS011;40603;48.774;8.916;2023-05-15T08:19:49;4.40;;;2.13;;
54705;SDS011;40603;48.774;8.916;2023-05-15T08:22:15;3.58;;;2.55;;
54705;SDS011;40603;48.774;8.916;2023-05-15T08:24:40;2.67;;;2.45;;
54705;SDS011;40603;48.774;8.916;2023-05-15T08:27:06;4.78;;;2.63;;
54705;SDS011;40603;48.774;8.916;2023-05-15T08:29:32;5.95;;;2.70;;
54705;SDS011;40603;48.774;8.916;2023-05-15T08:31:58;5.32;;;2.55;;
54705;SDS011;40603;48.774;8.916;2023-05-15T08:34:23;5.03;;;2.70;;
54705;SDS011;40603;48.774;8.916;2023-05-15T08:36:49;6.18;;;3.05;;
54705;SDS011;40603;48.774;8.916;2023-05-15T08:39:14;6.13;;;2.88;;
54705;SDS011;40603;48.774;8.916;2023-05-15T08:41:41;4.90;;;2.50;;
54705;SDS011;40603;48.774;8.916;2023-05-15T08:44:15;5.20;;;2.33;;
54705;SDS011;40603;48.774;8.916;2023-05-15T08:46:41;3.58;;;2.33;;
54705;SDS011;40603;48.774;8.916;2023-05-15T08:49:10;3.50;;;2.38;;
54705;SDS011;40603;48.774;8.916;2023-05-15T08:51:41;3.83;;;2.83;;
54705;SDS011;40603;48.774;8.916;2023-05-15T08:54:07;4.85;;;2.60;;
54705;SDS011;40603;48.774;8.916;2023-05-15T08:56:32;3.58;;;2.83;;
54705;SDS011;40603;48.774;8.916;2023-05-15T08:58:57;9.00;;;2.63;;
54705;SDS011;40603;48.774;8.916;2023-05-15T09:01:23;3.90;;;2.53;;
54705;SDS011;40603;48.774;8.916;2023-05-15T09:03:49;6.30;;;2.45;;
54705;SDS011;40603;48.774;8.916;2023-05-15T09:06:14;4.43;;;2.85;;
54705;SDS011;40603;48.774;8.916;2023-05-15T09:08:39;4.85;;;2.80;;
54705;SDS011;40603;48.774;8.916;2023-05-15T09:11:06;4.43;;;2.33;;
54705;SDS011;40603;48.774;8.916;2023-05-15T09:13:31;4.80;;;2.85;;
54705;SDS011;40603;48.774;8.916;2023-05-15T09:15:57;6.00;;;2.70;;
54705;SDS011;40603;48.774;8.916;2023-05-15T09:18:22;10.35;;;2.83;;
54705;SDS011;40603;48.774;8.916;2023-05-15T09:20:48;3.90;;;2.63;;
54705;SDS011;40603;48.774;8.916;2023-05-15T09:23:24;6.60;;;2.90;;
54705;SDS011;40603;48.774;8.916;2023-05-15T09:25:50;6.43;;;2.88;;
54705;SDS011;40603;48.774;8.916;2023-05-15T09:31:00;7.20;;;2.80;;
54705;SDS011;40603;48.774;8.916;2023-05-15T09:33:28;6.95;;;3.10;;
54705;SDS011;40603;48.774;8.916;2023-05-15T09:35:55;7.07;;;2.47;;
54705;SDS011;40603;48.774;8.916;2023-05-15T09:38:20;6.07;;;2.30;;
54705;SDS011;40603;48.774;8.916;2023-05-15T09:40:45;3.80;;;2.30;;
54705;SDS011;40603;48.774;8.916;2023-05-15T09:43:10;2.17;;;1.95;;
54705;SDS011;40603;48.774;8.916;2023-05-15T09:45:36;2.92;;;2.28;;
54705;SDS011;40603;48.774;8.916;2023-05-15T09:48:05;2.65;;;2.05;;
54705;SDS011;40603;48.774;8.916;2023-05-15T09:50:32;17.95;;;4.65;;
54705;SDS011;40603;48.774;8.916;2023-05-15T09:52:59;2.67;;;1.92;;
54705;SDS011;40603;48.774;8.916;2023-05-15T09:55:24;3.78;;;2.85;;
54705;SDS011;40603;48.774;8.916;2023-05-15T10:00:39;3.22;;;2.40;;
54705;SDS011;40603;48.774;8.916;2023-05-15T10:03:06;3.80;;;2.08;;
54705;SDS011;40603;48.774;8.916;2023-05-15T10:05:32;2.22;;;2.03;;
54705;SDS011;40603;48.774;8.916;2023-05-15T10:07:58;3.22;;;2.00;;
54705;SDS011;40603;48.774;8.916;2023-05-15T10:10:24;4.20;;;2.05;;
54705;SDS011;40603;48.774;8.916;2023-05-15T10:12:50;7.15;;;2.50;;
54705;SDS011;40603;48.774;8.916;2023-05-15T10:15:17;3.00;;;2.03;;
54705;SDS011;40603;48.774;8.916;2023-05-15T10:17:43;3.58;;;2.03;;
54705;SDS011;40603;48.774;8.916;2023-05-15T10:20:11;3.08;;;2.15;;
54705;SDS011;40603;48.774;8.916;2023-05-15T10:22:38;3.92;;;1.95;;
54705;SDS011;40603;48.774;8.916;2023-05-15T10:25:15;3.05;;;2.28;;
54705;SDS011;40603;48.774;8.916;2023-05-15T10:27:41;2.67;;;2.42;;
54705;SDS011;40603;48.774;8.916;2023-05-15T10:30:06;4.38;;;2.10;;
54705;SDS011;40603;48.774;8.916;2023-05-15T10:32:33;2.72;;;2.45;;
54705;SDS011;40603;48.774;8.916;2023-05-15T10:34:59;3.53;;;2.17;;
54705;SDS011;40603;48.774;8.916;2023-05-15T10:37:25;4.10;;;1.90;;
54705;SDS011;40603;48.774;8.916;2023-05-15T10:39:52;4.07;;;1.98;;
54705;SDS011;40603;48.774;8.916;2023-05-15T10:42:20;2.60;;;1.85;;
54705;SDS011;40603;48.774;8.916;2023-05-15T10:44:45;4.30;;;1.98;;
54705;SDS011;40603;48.774;8.916;2023-05-15T10:47:11;4.35;;;2.03;;
54705;SDS011;40603;48.774;8.916;2023-05-15T10:49:36;1.80;;;1.63;;
54705;SDS011;40603;48.774;8.916;2023-05-15T10:52:01;1.92;;;1.80;;
54705;SDS011;40603;48.774;8.916;2023-05-15T10:54:27;2.10;;;1.60;;
54705;SDS011;40603;48.774;8.916;2023-05-15T10:56:54;3.22;;;2.03;;
54705;SDS011;40603;48.774;8.916;2023-05-15T10:59:20;3.35;;;1.52;;
54705;SDS011;40603;48.774;8.916;2023-05-15T11:01:45;3.03;;;1.60;;
54705;SDS011;40603;48.774;8.916;2023-05-15T11:04:15;8.38;;;2.53;;
54705;SDS011;40603;48.774;8.916;2023-05-15T11:06:43;2.22;;;1.63;;
54705;SDS011;40603;48.774;8.916;2023-05-15T11:14:34;2.83;;;1.50;;
54705;SDS011;40603;48.774;8.916;2023-05-15T11:17:01;1.85;;;1.50;;
54705;SDS011;40603;48.774;8.916;2023-05-15T11:24:30;4.28;;;1.75;;
54705;SDS011;40603;48.774;8.916;2023-05-15T11:26:58;1.85;;;1.60;;
54705;SDS011;40603;48.774;8.916;2023-05-15T11:29:24;6.05;;;1.70;;
54705;SDS011;40603;48.774;8.916;2023-05-15T11:31:49;2.67;;;1.77;;
54705;SDS011;40603;48.774;8.916;2023-05-15T11:34:15;2.90;;;2.10;;
54705;SDS011;40603;48.774;8.916;2023-05-15T11:36:41;4.00;;;1.77;;
54705;SDS011;40603;48.774;8.916;2023-05-15T11:39:10;3.78;;;2.30;;
54705;SDS011;40603;48.774;8.916;2023-05-15T11:41:36;2.92;;;1.50;;
54705;SDS011;40603;48.774;8.916;2023-05-15T11:44:01;5.00;;;1.73;;
54705;SDS011;40603;48.774;8.916;2023-05-15T11:46:27;1.95;;;1.60;;
54705;SDS011;40603;48.774;8.916;2023-05-15T11:48:52;1.67;;;1.33;;
54705;SDS011;40603;48.774;8.916;2023-05-15T11:51:19;2.78;;;1.58;;
54705;SDS011;40603;48.774;8.916;2023-05-15T11:56:21;3.10;;;1.90;;
54705;SDS011;40603;48.774;8.916;2023-05-15T11:58:48;1.48;;;1.30;;
54705;SDS011;40603;48.774;8.916;2023-05-15T12:01:19;2.15;;;1.60;;
54705;SDS011;40603;48.774;8.916;2023-05-15T12:03:45;1.85;;;1.50;;
54705;SDS011;40603;48.774;8.916;2023-05-15T12:06:11;2.63;;;1.50;;
54705;SDS011;40603;48.774;8.916;2023-05-15T12:08:37;1.55;;;1.27;;
54705;SDS011;40603;48.774;8.916;2023-05-15T12:11:02;2.47;;;1.70;;
54705;SDS011;40603;48.774;8.916;2023-05-15T12:13:28;1.63;;;1.30;;
54705;SDS011;40603;48.774;8.916;2023-05-15T12:15:55;1.85;;;1.60;;
54705;SDS011;40603;48.774;8.916;2023-05-15T12:18:21;2.42;;;1.80;;
54705;SDS011;40603;48.774;8.916;2023-05-15T12:20:46;2.13;;;1.77;;
54705;SDS011;40603;48.774;8.916;2023-05-15T12:23:14;4.95;;;2.10;;
54705;SDS011;40603;48.774;8.916;2023-05-15T12:25:40;3.28;;;1.85;;
54705;SDS011;40603;48.774;8.916;2023-05-15T12:28:06;1.95;;;1.48;;
54705;SDS011;40603;48.774;8.916;2023-05-15T12:30:32;1.60;;;1.50;;
54705;SDS011;40603;48.774;8.916;2023-05-15T12:32:59;1.73;;;1.50;;
54705;SDS011;40603;48.774;8.916;2023-05-15T12:35:26;3.97;;;1.52;;
54705;SDS011;40603;48.774;8.916;2023-05-15T12:37:51;4.38;;;1.70;;
54705;SDS011;40603;48.774;8.916;2023-05-15T12:40:19;2.67;;;1.45;;
54705;SDS011;40603;48.774;8.916;2023-05-15T12:42:44;2.95;;;1.85;;
54705;SDS011;40603;48.774;8.916;2023-05-15T12:45:14;3.30;;;1.60;;
54705;SDS011;40603;48.774;8.916;2023-05-15T12:50:13;3.35;;;1.52;;
54705;SDS011;40603;48.774;8.916;2023-05-15T12:52:55;4.70;;;1.80;;
54705;SDS011;40603;48.774;8.916;2023-05-15T12:55:22;4.97;;;2.38;;
54705;SDS011;40603;48.774;8.916;2023-05-15T12:57:49;4.22;;;2.35;;
54705;SDS011;40603;48.774;8.916;2023-05-15T13:00:15;2.72;;;1.80;;
54705;SDS011;40603;48.774;8.916;2023-05-15T13:02:42;3.30;;;1.92;;
54705;SDS011;40603;48.774;8.916;2023-05-15T13:05:10;2.00;;;1.90;;
54705;SDS011;40603;48.774;8.916;2023-05-15T13:07:39;3.28;;;2.25;;
54705;SDS011;40603;48.774;8.916;2023-05-15T13:10:06;1.73;;;1.60;;
54705;SDS011;40603;48.774;8.916;2023-05-15T13:12:35;4.03;;;1.80;;
54705;SDS011;40603;48.774;8.916;2023-05-15T13:15:02;5.80;;;1.95;;
54705;SDS011;40603;48.774;8.916;2023-05-15T13:17:29;2.65;;;2.13;;
54705;SDS011;40603;48.774;8.916;2023-05-15T13:19:54;4.40;;;2.40;;
54705;SDS011;40603;48.774;8.916;2023-05-15T13:22:20;2.35;;;1.98;;
54705;SDS011;40603;48.774;8.916;2023-05-15T13:24:45;2.80;;;2.00;;
54705;SDS011;40603;48.774;8.916;2023-05-15T13:27:10;3.28;;;1.88;;
54705;SDS011;40603;48.774;8.916;2023-05-15T13:29:36;4.25;;;1.98;;
54705;SDS011;40603;48.774;8.916;2023-05-15T13:32:01;6.90;;;2.40;;
54705;SDS011;40603;48.774;8.916;2023-05-15T13:34:26;7.15;;;2.15;;
54705;SDS011;40603;48.774;8.916;2023-05-15T13:36:52;2.53;;;1.88;;
54705;SDS011;40603;48.774;8.916;2023-05-15T13:39:17;2.15;;;1.88;;
54705;SDS011;40603;48.774;8.916;2023-05-15T13:41:43;3.03;;;2.08;;
54705;SDS011;40603;48.774;8.916;2023-05-15T13:44:08;3.63;;;2.33;;
54705;SDS011;40603;48.774;8.916;2023-05-15T13:46:33;3.42;;;1.85;;
54705;SDS011;40603;48.774;8.916;2023-05-15T13:48:59;2.35;;;1.75;;
54705;SDS011;40603;48.774;8.916;2023-05-15T13:51:24;2.35;;;1.80;;
54705;SDS011;40603;48.774;8.916;2023-05-15T13:53:50;4.68;;;2.20;;
54705;SDS011;40603;48.774;8.916;2023-05-15T13:56:15;3.50;;;1.65;;
54705;SDS011;40603;48.774;8.916;2023-05-15T13:58:40;2.97;;;1.60;;
54705;SDS011;40603;48.774;8.916;2023-05-15T14:01:06;1.92;;;1.73;;
54705;SDS011;40603;48.774;8.916;2023-05-15T14:03:34;2.50;;;1.73;;
54705;SDS011;40603;48.774;8.916;2023-05-15T14:05:59;5.18;;;1.60;;
54705;SDS011;40603;48.774;8.916;2023-05-15T14:08:24;2.38;;;1.55;;
54705;SDS011;40603;48.774;8.916;2023-05-15T14:10:50;1.90;;;1.70;;
54705;SDS011;40603;48.774;8.916;2023-05-15T14:13:15;1.88;;;1.67;;
54705;SDS011;40603;48.774;8.916;2023-05-15T14:15:41;2.78;;;1.75;;
54705;SDS011;40603;48.774;8.916;2023-05-15T14:18:06;2.53;;;1.98;;
54705;SDS011;40603;48.774;8.916;2023-05-15T14:20:31;3.38;;;1.80;;
54705;SDS011;40603;48.774;8.916;2023-05-15T14:22:56;2.55;;;2.30;;
54705;SDS011;40603;48.774;8.916;2023-05-15T14:25:22;2.25;;;1.95;;
54705;SDS011;40603;48.774;8.916;2023-05-15T14:27:48;1.58;;;1.48;;
54705;SDS011;40603;48.774;8.916;2023-05-15T14:30:13;2.47;;;1.58;;
54705;SDS011;40603;48.774;8.916;2023-05-15T14:32:39;4.07;;;1.80;;
54705;SDS011;40603;48.774;8.916;2023-05-15T14:35:04;2.33;;;2.08;;
54705;SDS011;40603;48.774;8.916;2023-05-15T14:37:29;2.03;;;1.83;;
54705;SDS011;40603;48.774;8.916;2023-05-15T14:39:55;2.97;;;1.92;;
54705;SDS011;40603;48.774;8.916;2023-05-15T14:42:20;2.20;;;2.00;;
54705;SDS011;40603;48.774;8.916;2023-05-15T14:44:46;3.53;;;2.22;;
54705;SDS011;40603;48.774;8.916;2023-05-15T14:47:11;2.40;;;1.80;;
54705;SDS011;40603;48.774;8.916;2023-05-15T14:49:37;4.25;;;1.92;;
54705;SDS011;40603;48.774;8.916;2023-05-15T14:52:04;3.05;;;2.10;;
54705;SDS011;40603;48.774;8.916;2023-05-15T14:54:30;4.55;;;2.40;;
54705;SDS011;40603;48.774;8.916;2023-05-15T14:56:56;3.22;;;2.20;;
54705;SDS011;40603;48.774;8.916;2023-05-15T14:59:21;3.47;;;2.60;;
54705;SDS011;40603;48.774;8.916;2023-05-15T15:01:46;2.97;;;2.10;;
54705;SDS011;40603;48.774;8.916;2023-05-15T15:04:12;4.30;;;2.92;;
54705;SDS011;40603;48.774;8.916;2023-05-15T15:06:37;5.95;;;3.08;;
54705;SDS011;40603;48.774;8.916;2023-05-15T15:09:02;4.30;;;3.35;;
54705;SDS011;40603;48.774;8.916;2023-05-15T15:11:28;8.60;;;3.50;;
54705;SDS011;40603;48.774;8.916;2023-05-15T15:13:53;4.78;;;3.35;;
54705;SDS011;40603;48.774;8.916;2023-05-15T15:16:18;6.85;;;3.78;;
54705;SDS011;40603;48.774;8.916;2023-05-15T15:18:44;5.68;;;3.10;;